Time;durP1;ratioP1;P1;durP2;ratioP2;P2;SDS_P1;SDS_P2;PMS_P1;PMS_P2;Temp;Humidity;BMP_temperature;BMP_pressure;BME280_temperature;BME280_humidity;BME280_pressure;Samples;Min_cycle;Max_cycle;Signal;HPM_P1;HPM_P2
2021/12/07 00:00:35;;;;;;;;;;;;;;;;;;5092984;28;19982;-75
2021/12/07 00:03:01;;;;;;;;;;;;;;;;;;5092713;28;19915;-76
2021/12/07 00:05:27;;;;;;;;;;;;;;;;;;5092929;28;19908;-76
2021/12/07 00:07:52;;;;;;;;;;;;;;;;;;5092929;28;19915;-76
2021/12/07 00:10:18;;;;;;;;;;;;;;;;;;5092754;28;19915;-75
2021/12/07 00:12:45;;;;;;;;;;;;;;;;;;5092514;28;19973;-76
2021/12/07 00:15:14;;;;;;;;;;;;;;;;;;5092789;28;19994;-76
2021/12/07 00:17:40;;;;;;;;;;;;;;;;;;5092846;28;19931;-76
2021/12/07 00:20:06;;;;;;;;;;;;;;;;;;5092583;28;20348;-75
2021/12/07 00:22:32;;;;;;;;;;;;;;;;;;5092599;28;19912;-76
2021/12/07 00:24:58;;;;;;;;;;;;;;;;;;5092591;28;19908;-76
2021/12/07 00:27:24;;;;;;;;;;;;;;;;;;5092661;28;19908;-75
2021/12/07 00:29:49;;;;;;;;;;;;;;;;;;5093018;28;19915;-76
2021/12/07 00:32:32;;;;;;;;;;;;;;;;;;5096346;28;20283;-76
2021/12/07 00:37:26;;;;;;;;;;;;;;;;;;5096218;28;19912;-76
2021/12/07 00:39:52;;;;;;;;;;;;;;;;;;5096169;28;19915;-76
2021/12/07 00:42:18;;;;;;;;;;;;;;;;;;5077966;28;19915;-76
2021/12/07 00:44:44;;;;;;;;;;;;;;;;;;5096035;28;20250;-75
2021/12/07 00:47:09;;;;;;;;;;;;;;;;;;5096328;28;19908;-76
2021/12/07 00:49:35;;;;;;;;;;;;;;;;;;5096045;28;19953;-76
2021/12/07 00:52:01;;;;;;;;;;;;;;;;;;5095872;28;19926;-76
2021/12/07 00:54:27;;;;;;;;;;;;;;;;;;5095954;28;20395;-76
2021/12/07 00:56:53;;;;;;;;;;;;;;;;;;5096202;28;19908;-76
2021/12/07 00:59:19;;;;;;;;;;;;;;;;;;5090548;28;19912;-75
2021/12/07 01:01:45;;;;;;;;;;;;;;;;;;5083933;28;19958;-76
2021/12/07 01:04:10;;;;;;;;;;;;;;;;;;5085341;28;19959;-76
2021/12/07 01:07:02;;;;;;;;;;;;;;;;;;5085145;28;19927;-76
2021/12/07 01:24:38;;;;;;;;;;;;;;;;;;5080279;28;19917;-76
2021/12/07 01:26:03;;;;;;;;;;;;;;;;;;5081256;28;20003;-76
2021/12/07 01:28:35;;;;;;;;;;;;;;;;;;5086211;28;20006;-75
2021/12/07 01:33:58;;;;;;;;;;;;;;;;;;5082405;28;19924;-76
2021/12/07 02:00:12;;;;;;;;;;;;;;;;;;5083817;28;19917;-76
2021/12/07 02:02:38;;;;;;;;;;;;;;;;;;5083568;28;19936;-76
2021/12/07 02:05:04;;;;;;;;;;;;;;;;;;5082682;28;19952;-76
2021/12/07 02:07:31;;;;;;;;;;;;;;;;;;5084979;28;19912;-76
2021/12/07 02:10:03;;;;;;;;;;;;;;;;;;5081906;28;19919;-76
2021/12/07 02:12:29;;;;;;;;;;;;;;;;;;5084891;28;19924;-76
2021/12/07 02:14:55;;;;;;;;;;;;;;;;;;5081780;28;19919;-76
2021/12/07 02:17:24;;;;;;;;;;;;;;;;;;5066601;28;20257;-76
2021/12/07 02:19:50;;;;;;;;;;;;;;;;;;5081957;28;19955;-76
2021/12/07 02:22:17;;;;;;;;;;;;;;;;;;5084065;28;19948;-76
2021/12/07 02:24:43;;;;;;;;;;;;;;;;;;5082800;28;19923;-76
2021/12/07 02:27:09;;;;;;;;;;;;;;;;;;5083276;28;20303;-76
2021/12/07 02:29:34;;;;;;;;;;;;;;;;;;5065760;28;19912;-76
2021/12/07 02:32:02;;;;;;;;;;;;;;;;;;5063623;28;19920;-76
2021/12/07 02:34:28;;;;;;;;;;;;;;;;;;5084895;28;19923;-76
2021/12/07 02:36:54;;;;;;;;;;;;;;;;;;5080301;28;19913;-76
2021/12/07 02:39:19;;;;;;;;;;;;;;;;;;5065665;28;19916;-76
2021/12/07 02:41:45;;;;;;;;;;;;;;;;;;5082066;28;19912;-76
2021/12/07 02:44:11;;;;;;;;;;;;;;;;;;5083009;28;19963;-76
2021/12/07 02:46:37;;;;;;;;;;;;;;;;;;5083026;28;19974;-76
2021/12/07 02:49:03;;;;;;;;;;;;;;;;;;5081933;28;20382;-76
2021/12/07 02:51:29;;;;;;;;;;;;;;;;;;5084064;28;19920;-76
2021/12/07 02:53:56;;;;;;;;;;;;;;;;;;5080223;28;19919;-76
2021/12/07 02:56:21;;;;;;;;;;;;;;;;;;5062940;28;19917;-75
2021/12/07 02:58:47;;;;;;;;;;;;;;;;;;5083822;28;19916;-76
2021/12/07 03:01:18;;;;;;;;;;;;;;;;;;5081781;28;19919;-76
2021/12/07 03:10:03;;;;;;;;;;;;;;;;;;5077356;28;20382;-76
2021/12/07 03:26:22;;;;;;;;;;;;;;;;;;5076402;28;19958;-76
2021/12/07 03:28:47;;;;;;;;;;;;;;;;;;5083585;28;19959;-77
2021/12/07 03:31:13;;;;;;;;;;;;;;;;;;5081140;28;19920;-76
2021/12/07 03:33:39;;;;;;;;;;;;;;;;;;5082050;28;20276;-76
2021/12/07 03:36:05;;;;;;;;;;;;;;;;;;5082466;28;19922;-76
2021/12/07 03:38:31;;;;;;;;;;;;;;;;;;5081016;28;20310;-75
2021/12/07 03:40:57;;;;;;;;;;;;;;;;;;5083749;28;19912;-76
2021/12/07 03:43:23;;;;;;;;;;;;;;;;;;5080466;28;19916;-76
2021/12/07 03:45:48;;;;;;;;;;;;;;;;;;5083491;28;19912;-76
2021/12/07 03:48:14;;;;;;;;;;;;;;;;;;5081415;28;20386;-76
2021/12/07 03:50:40;;;;;;;;;;;;;;;;;;5064187;28;19912;-76
2021/12/07 03:53:06;;;;;;;;;;;;;;;;;;5081686;28;19927;-75
2021/12/07 03:55:32;;;;;;;;;;;;;;;;;;5080952;28;19944;-76
2021/12/07 03:57:58;;;;;;;;;;;;;;;;;;5083689;28;19916;-76
2021/12/07 04:00:24;;;;;;;;;;;;;;;;;;5080473;28;19959;-76
2021/12/07 04:02:51;;;;;;;;;;;;;;;;;;5083392;28;19973;-76
2021/12/07 04:05:18;;;;;;;;;;;;;;;;;;5082041;28;19978;-76
2021/12/07 04:07:44;;;;;;;;;;;;;;;;;;5086560;28;19912;-76
2021/12/07 04:10:10;;;;;;;;;;;;;;;;;;5085383;28;20008;-76
2021/12/07 04:12:36;;;;;;;;;;;;;;;;;;5085061;28;19921;-76
2021/12/07 04:15:01;;;;;;;;;;;;;;;;;;5086715;28;19935;-76
2021/12/07 04:17:27;;;;;;;;;;;;;;;;;;5084338;28;19977;-76
2021/12/07 04:19:53;;;;;;;;;;;;;;;;;;5087474;28;20329;-76
2021/12/07 04:22:19;;;;;;;;;;;;;;;;;;5083945;28;20064;-75
2021/12/07 04:24:45;;;;;;;;;;;;;;;;;;5086335;28;19912;-76
2021/12/07 04:27:11;;;;;;;;;;;;;;;;;;5085173;28;19916;-77
2021/12/07 04:29:37;;;;;;;;;;;;;;;;;;5067079;28;19913;-76
2021/12/07 04:32:02;;;;;;;;;;;;;;;;;;5091523;28;19920;-76
2021/12/07 04:34:28;;;;;;;;;;;;;;;;;;5078005;28;19908;-76
2021/12/07 04:36:54;;;;;;;;;;;;;;;;;;5096305;28;19908;-76
2021/12/07 04:39:20;;;;;;;;;;;;;;;;;;5077782;28;19915;-76
2021/12/07 04:41:48;;;;;;;;;;;;;;;;;;5096227;28;19961;-76
2021/12/07 04:44:14;;;;;;;;;;;;;;;;;;5078095;28;20325;-76
2021/12/07 04:46:48;;;;;;;;;;;;;;;;;;5096294;28;19952;-76
2021/12/07 05:00:05;;;;;;;;;;;;;;;;;;5095864;28;19911;-76
2021/12/07 05:02:31;;;;;;;;;;;;;;;;;;5095813;28;19908;-76
2021/12/07 05:04:57;;;;;;;;;;;;;;;;;;5095580;28;19999;-76
2021/12/07 05:07:31;;;;;;;;;;;;;;;;;;5095977;28;19956;-76
2021/12/07 05:15:16;;;;;;;;;;;;;;;;;;5094629;28;19912;-76
2021/12/07 05:18:00;;;;;;;;;;;;;;;;;;5094611;28;19909;-75
2021/12/07 05:39:29;;;;;;;;;;;;;;;;;;5095091;28;19915;-76
2021/12/07 05:41:55;;;;;;;;;;;;;;;;;;5095111;28;20356;-76
2021/12/07 05:44:21;;;;;;;;;;;;;;;;;;5095208;28;20026;-76
2021/12/07 05:46:47;;;;;;;;;;;;;;;;;;5094515;28;19908;-76
2021/12/07 05:49:12;;;;;;;;;;;;;;;;;;5094583;28;20391;-76
2021/12/07 05:51:38;;;;;;;;;;;;;;;;;;5094696;28;19924;-76
2021/12/07 05:54:04;;;;;;;;;;;;;;;;;;5076215;28;20001;-76
2021/12/07 05:56:30;;;;;;;;;;;;;;;;;;5095120;28;19915;-76
2021/12/07 05:58:56;;;;;;;;;;;;;;;;;;5095029;28;19912;-76
2021/12/07 06:01:22;;;;;;;;;;;;;;;;;;5094707;28;19908;-76
2021/12/07 06:03:47;;;;;;;;;;;;;;;;;;5094746;28;19912;-76
2021/12/07 06:06:13;;;;;;;;;;;;;;;;;;5094575;28;20322;-76
2021/12/07 06:08:39;;;;;;;;;;;;;;;;;;5094188;28;19908;-76
2021/12/07 06:11:05;;;;;;;;;;;;;;;;;;5094466;28;19908;-76
2021/12/07 06:13:31;;;;;;;;;;;;;;;;;;5094431;28;19908;-76
2021/12/07 06:16:03;;;;;;;;;;;;;;;;;;5094503;28;19915;-76
2021/12/07 06:18:29;;;;;;;;;;;;;;;;;;5094506;28;19999;-76
2021/12/07 06:20:54;;;;;;;;;;;;;;;;;;5094213;28;19991;-74
2021/12/07 06:23:20;;;;;;;;;;;;;;;;;;5094174;28;19910;-75
2021/12/07 06:25:46;;;;;;;;;;;;;;;;;;5094041;28;19912;-76
2021/12/07 06:28:12;;;;;;;;;;;;;;;;;;5094200;28;19962;-76
2021/12/07 06:30:38;;;;;;;;;;;;;;;;;;5089810;28;19916;-76
2021/12/07 06:33:04;;;;;;;;;;;;;;;;;;5074113;28;19917;-76
2021/12/07 06:35:30;;;;;;;;;;;;;;;;;;5073377;28;20288;-76
2021/12/07 06:37:56;;;;;;;;;;;;;;;;;;5073602;28;19913;-76
2021/12/07 06:40:21;;;;;;;;;;;;;;;;;;5073627;28;19913;-76
2021/12/07 06:42:47;;;;;;;;;;;;;;;;;;5055690;28;19974;-73
2021/12/07 06:45:13;;;;;;;;;;;;;;;;;;5073724;28;19975;-76
2021/12/07 06:47:39;;;;;;;;;;;;;;;;;;5073716;28;20391;-76
2021/12/07 06:50:05;;;;;;;;;;;;;;;;;;5073479;28;19908;-76
2021/12/07 06:52:31;;;;;;;;;;;;;;;;;;5073382;28;20021;-76
2021/12/07 06:54:58;;;;;;;;;;;;;;;;;;5055594;28;20272;-76
2021/12/07 06:57:24;;;;;;;;;;;;;;;;;;5073431;28;19905;-76
2021/12/07 06:59:50;;;;;;;;;;;;;;;;;;5073391;28;19915;-76
2021/12/07 07:02:15;;;;;;;;;;;;;;;;;;5055358;28;20380;-75
2021/12/07 07:04:41;;;;;;;;;;;;;;;;;;5073212;28;19931;-76
2021/12/07 07:07:07;;;;;;;;;;;;;;;;;;5073264;28;19956;-76
2021/12/07 07:09:33;;;;;;;;;;;;;;;;;;5073312;28;19909;-76
2021/12/07 07:11:59;;;;;;;;;;;;;;;;;;5072837;28;19924;-76
2021/12/07 07:14:25;;;;;;;;;;;;;;;;;;5073278;28;19915;-76
2021/12/07 07:16:51;;;;;;;;;;;;;;;;;;5073263;28;19995;-76
2021/12/07 07:19:17;;;;;;;;;;;;;;;;;;5073158;28;19961;-76
2021/12/07 07:21:42;;;;;;;;;;;;;;;;;;5072362;28;19916;-76
2021/12/07 07:24:08;;;;;;;;;;;;;;;;;;5072780;28;19909;-76
2021/12/07 07:26:34;;;;;;;;;;;;;;;;;;5072605;28;20280;-77
2021/12/07 07:29:00;;;;;;;;;;;;;;;;;;5072763;28;20295;-76
2021/12/07 07:31:26;;;;;;;;;;;;;;;;;;5054484;28;19927;-76
2021/12/07 07:33:53;;;;;;;;;;;;;;;;;;5054820;28;19908;-77
2021/12/07 07:36:19;;;;;;;;;;;;;;;;;;5072820;28;20007;-76
2021/12/07 07:38:45;;;;;;;;;;;;;;;;;;5073035;28;19936;-76
2021/12/07 07:41:10;;;;;;;;;;;;;;;;;;5078360;28;19912;-77
2021/12/07 07:43:36;;;;;;;;;;;;;;;;;;5079285;28;19909;-76
2021/12/07 07:46:02;;;;;;;;;;;;;;;;;;5061640;28;19976;-76
2021/12/07 07:48:28;;;;;;;;;;;;;;;;;;5079389;28;20368;-76
2021/12/07 07:50:54;;;;;;;;;;;;;;;;;;5079460;28;19915;-76
2021/12/07 07:53:20;;;;;;;;;;;;;;;;;;5079715;28;19966;-76
2021/12/07 07:55:46;;;;;;;;;;;;;;;;;;5079724;28;19909;-76
2021/12/07 07:58:11;;;;;;;;;;;;;;;;;;5079780;28;19909;-76
2021/12/07 08:00:37;;;;;;;;;;;;;;;;;;5061992;28;19908;-76
2021/12/07 08:03:03;;;;;;;;;;;;;;;;;;5079580;28;20428;-76
2021/12/07 08:05:29;;;;;;;;;;;;;;;;;;5080331;28;19932;-76
2021/12/07 08:07:55;;;;;;;;;;;;;;;;;;5081788;28;19908;-76
2021/12/07 08:10:21;;;;;;;;;;;;;;;;;;5081135;28;20365;-76
2021/12/07 08:12:47;;;;;;;;;;;;;;;;;;5079939;28;19928;-76
2021/12/07 08:15:13;;;;;;;;;;;;;;;;;;5080151;28;19909;-76
2021/12/07 08:17:38;;;;;;;;;;;;;;;;;;5079728;28;19931;-76
2021/12/07 08:20:04;;;;;;;;;;;;;;;;;;5079530;28;19909;-76
2021/12/07 08:22:30;;;;;;;;;;;;;;;;;;5078478;28;20003;-76
2021/12/07 08:24:56;;;;;;;;;;;;;;;;;;5078747;28;20377;-76
2021/12/07 08:27:22;;;;;;;;;;;;;;;;;;5078824;28;19999;-75
2021/12/07 08:29:48;;;;;;;;;;;;;;;;;;5079103;28;19912;-75
2021/12/07 08:32:13;;;;;;;;;;;;;;;;;;5060672;28;19917;-76
2021/12/07 08:34:39;;;;;;;;;;;;;;;;;;5079086;28;19908;-77
2021/12/07 08:37:05;;;;;;;;;;;;;;;;;;5079147;28;20284;-76
2021/12/07 08:39:34;;;;;;;;;;;;;;;;;;5079247;28;19915;-76
2021/12/07 08:42:00;;;;;;;;;;;;;;;;;;5078853;28;20502;-76
2021/12/07 08:44:26;;;;;;;;;;;;;;;;;;5078766;28;19944;-76
2021/12/07 08:46:52;;;;;;;;;;;;;;;;;;5078664;28;20353;-75
2021/12/07 08:49:19;;;;;;;;;;;;;;;;;;5078764;28;19912;-76
2021/12/07 08:51:45;;;;;;;;;;;;;;;;;;5077498;28;19916;-76
2021/12/07 09:02:06;;;;;;;;;;;;;;;;;;5075731;28;20272;-76
2021/12/07 09:04:31;;;;;;;;;;;;;;;;;;5075525;28;19911;-76
2021/12/07 09:06:57;;;;;;;;;;;;;;;;;;5075371;28;19970;-75
2021/12/07 09:09:23;;;;;;;;;;;;;;;;;;5074731;28;19911;-77
2021/12/07 09:11:49;;;;;;;;;;;;;;;;;;5074626;28;19921;-77
2021/12/07 09:14:17;;;;;;;;;;;;;;;;;;5057597;28;19909;-77
2021/12/07 09:16:43;;;;;;;;;;;;;;;;;;5075403;28;19961;-77
2021/12/07 09:19:09;;;;;;;;;;;;;;;;;;5075270;28;19916;-77
2021/12/07 09:21:35;;;;;;;;;;;;;;;;;;5075219;28;19909;-76
2021/12/07 09:24:01;;;;;;;;;;;;;;;;;;5075179;28;20267;-77
2021/12/07 09:26:27;;;;;;;;;;;;;;;;;;5074956;28;19915;-78
2021/12/07 09:28:52;;;;;;;;;;;;;;;;;;5075098;28;20003;-77
2021/12/07 09:31:18;;;;;;;;;;;;;;;;;;5075035;28;20399;-77
2021/12/07 09:33:44;;;;;;;;;;;;;;;;;;5075182;28;20018;-76
2021/12/07 09:36:10;;;;;;;;;;;;;;;;;;5055979;28;20331;-77
2021/12/07 09:38:36;;;;;;;;;;;;;;;;;;5074501;28;20360;-76
2021/12/07 09:41:02;;;;;;;;;;;;;;;;;;5074849;28;19908;-75
2021/12/07 09:43:28;;;;;;;;;;;;;;;;;;5074729;28;19917;-76
2021/12/07 09:45:54;;;;;;;;;;;;;;;;;;5074815;28;20400;-77
2021/12/07 09:48:20;;;;;;;;;;;;;;;;;;5073920;28;19992;-80
2021/12/07 09:50:45;;;;;;;;;;;;;;;;;;5074611;28;20253;-73
2021/12/07 09:53:11;;;;;;;;;;;;;;;;;;5056462;28;19916;-72
2021/12/07 09:55:37;;;;;;;;;;;;;;;;;;5074392;28;19908;-71
2021/12/07 09:58:03;;;;;;;;;;;;;;;;;;5074515;28;19908;-72
2021/12/07 10:00:29;;;;;;;;;;;;;;;;;;5074383;28;19909;-72
2021/12/07 10:02:55;;;;;;;;;;;;;;;;;;5056047;28;19915;-72
2021/12/07 10:05:21;;;;;;;;;;;;;;;;;;5074492;28;19915;-72
2021/12/07 10:07:46;;;;;;;;;;;;;;;;;;5074353;28;20433;-72
2021/12/07 10:10:12;;;;;;;;;;;;;;;;;;5074247;28;20010;-72
2021/12/07 10:12:38;;;;;;;;;;;;;;;;;;5073863;28;19924;-72
2021/12/07 10:15:04;;;;;;;;;;;;;;;;;;5073107;28;19909;-72
2021/12/07 10:17:30;;;;;;;;;;;;;;;;;;5073924;28;19915;-72
2021/12/07 10:19:56;;;;;;;;;;;;;;;;;;5074152;28;19912;-72
2021/12/07 10:22:22;;;;;;;;;;;;;;;;;;5074025;28;19908;-72
2021/12/07 10:24:48;;;;;;;;;;;;;;;;;;5073942;28;20272;-72
2021/12/07 10:27:14;;;;;;;;;;;;;;;;;;5073971;28;19953;-72
2021/12/07 10:29:40;;;;;;;;;;;;;;;;;;5073967;28;20390;-72
2021/12/07 10:32:07;;;;;;;;;;;;;;;;;;5073614;28;19919;-72
2021/12/07 10:34:35;;;;;;;;;;;;;;;;;;5073945;28;19908;-72
2021/12/07 10:37:01;;;;;;;;;;;;;;;;;;5073790;28;20277;-72
2021/12/07 10:39:27;;;;;;;;;;;;;;;;;;5073623;28;19920;-72
2021/12/07 10:41:53;;;;;;;;;;;;;;;;;;5073593;28;20433;-72
2021/12/07 10:44:18;;;;;;;;;;;;;;;;;;5073605;28;19912;-73
2021/12/07 10:46:44;;;;;;;;;;;;;;;;;;5073600;28;20007;-73
2021/12/07 10:49:10;;;;;;;;;;;;;;;;;;5073667;28;19961;-73
2021/12/07 10:51:36;;;;;;;;;;;;;;;;;;5073351;28;19917;-73
2021/12/07 10:54:02;;;;;;;;;;;;;;;;;;5073484;28;19918;-73
2021/12/07 10:56:28;;;;;;;;;;;;;;;;;;5073349;28;20265;-73
2021/12/07 10:58:54;;;;;;;;;;;;;;;;;;5073490;28;19908;-73
2021/12/07 11:01:19;;;;;;;;;;;;;;;;;;5073403;28;19908;-73
2021/12/07 11:03:45;;;;;;;;;;;;;;;;;;5073421;28;19908;-73
2021/12/07 11:06:11;;;;;;;;;;;;;;;;;;5073374;28;20361;-73
2021/12/07 11:08:37;;;;;;;;;;;;;;;;;;5073204;28;19912;-73
2021/12/07 11:11:04;;;;;;;;;;;;;;;;;;5072315;28;19912;-72
2021/12/07 11:13:35;;;;;;;;;;;;;;;;;;5073130;28;20288;-73
2021/12/07 11:16:01;;;;;;;;;;;;;;;;;;5072582;28;19909;-73
2021/12/07 11:18:27;;;;;;;;;;;;;;;;;;5073322;28;19908;-73
2021/12/07 11:20:53;;;;;;;;;;;;;;;;;;5055150;28;19928;-73
2021/12/07 11:23:18;;;;;;;;;;;;;;;;;;5072966;28;19966;-73
2021/12/07 11:31:01;;;;;;;;;;;;;;;;;;5072654;28;19962;-73
2021/12/07 11:33:27;;;;;;;;;;;;;;;;;;5072352;28;20422;-73
2021/12/07 11:35:54;;;;;;;;;;;;;;;;;;5054431;28;19912;-72
2021/12/07 11:38:20;;;;;;;;;;;;;;;;;;5072549;28;19955;-72
2021/12/07 11:40:45;;;;;;;;;;;;;;;;;;5072695;28;19909;-72
2021/12/07 11:43:11;;;;;;;;;;;;;;;;;;5072803;28;19938;-73
2021/12/07 11:45:37;;;;;;;;;;;;;;;;;;5073015;28;19908;-73
2021/12/07 11:48:03;;;;;;;;;;;;;;;;;;5072522;28;19909;-73
2021/12/07 11:50:29;;;;;;;;;;;;;;;;;;5072745;28;19909;-73
2021/12/07 11:52:55;;;;;;;;;;;;;;;;;;5072716;28;19920;-73
2021/12/07 11:55:21;;;;;;;;;;;;;;;;;;5072710;28;19909;-73
2021/12/07 11:57:46;;;;;;;;;;;;;;;;;;5072227;28;19969;-73
2021/12/07 12:00:12;;;;;;;;;;;;;;;;;;5072797;28;19959;-73
2021/12/07 12:02:39;;;;;;;;;;;;;;;;;;5072644;28;20373;-73
2021/12/07 12:05:04;;;;;;;;;;;;;;;;;;5072662;28;20443;-73
2021/12/07 12:07:30;;;;;;;;;;;;;;;;;;5054761;28;20003;-73
2021/12/07 12:09:56;;;;;;;;;;;;;;;;;;5072282;28;20369;-73
2021/12/07 12:12:22;;;;;;;;;;;;;;;;;;5053795;28;20003;-73
2021/12/07 12:14:48;;;;;;;;;;;;;;;;;;5054596;28;19962;-73
2021/12/07 12:17:14;;;;;;;;;;;;;;;;;;5072555;28;19909;-73
2021/12/07 12:19:40;;;;;;;;;;;;;;;;;;5054484;28;19995;-73
2021/12/07 12:22:05;;;;;;;;;;;;;;;;;;5072473;28;19915;-73
2021/12/07 12:24:31;;;;;;;;;;;;;;;;;;5054579;28;20328;-73
2021/12/07 12:26:57;;;;;;;;;;;;;;;;;;5074643;28;19999;-73
2021/12/07 12:29:23;;;;;;;;;;;;;;;;;;5075901;28;20276;-73
2021/12/07 12:31:49;;;;;;;;;;;;;;;;;;5075941;28;19912;-73
2021/12/07 12:34:15;;;;;;;;;;;;;;;;;;5076128;28;20395;-73
2021/12/07 12:36:41;;;;;;;;;;;;;;;;;;5076148;28;19909;-73
2021/12/07 12:39:07;;;;;;;;;;;;;;;;;;5076096;28;20289;-73
2021/12/07 12:41:33;;;;;;;;;;;;;;;;;;5076023;28;19952;-73
2021/12/07 12:43:59;;;;;;;;;;;;;;;;;;5076104;28;19912;-73
2021/12/07 12:46:25;;;;;;;;;;;;;;;;;;5075828;28;20420;-73
2021/12/07 12:48:51;;;;;;;;;;;;;;;;;;5075591;28;19978;-73
2021/12/07 12:51:16;;;;;;;;;;;;;;;;;;5075742;28;19908;-73
2021/12/07 12:53:42;;;;;;;;;;;;;;;;;;5076049;28;20400;-73
2021/12/07 12:56:08;;;;;;;;;;;;;;;;;;5075764;28;19982;-73
2021/12/07 12:58:36;;;;;;;;;;;;;;;;;;5075766;28;19915;-73
2021/12/07 13:01:02;;;;;;;;;;;;;;;;;;5075419;28;20265;-73
2021/12/07 13:03:28;;;;;;;;;;;;;;;;;;5057618;28;19915;-73
2021/12/07 13:05:54;;;;;;;;;;;;;;;;;;5075247;28;19912;-73
2021/12/07 13:08:20;;;;;;;;;;;;;;;;;;5075282;28;19908;-73
2021/12/07 13:10:46;;;;;;;;;;;;;;;;;;5075612;28;20395;-73
2021/12/07 13:13:11;;;;;;;;;;;;;;;;;;5075163;28;19943;-73
2021/12/07 13:15:37;;;;;;;;;;;;;;;;;;5057350;28;19916;-73
2021/12/07 13:18:03;;;;;;;;;;;;;;;;;;5075263;28;19908;-73
2021/12/07 13:20:29;;;;;;;;;;;;;;;;;;5075475;28;19909;-73
2021/12/07 13:22:55;;;;;;;;;;;;;;;;;;5075335;28;19916;-73
2021/12/07 13:25:21;;;;;;;;;;;;;;;;;;5075280;28;19954;-73
2021/12/07 13:27:47;;;;;;;;;;;;;;;;;;5057124;28;19908;-73
2021/12/07 13:30:13;;;;;;;;;;;;;;;;;;5074313;28;19959;-73
2021/12/07 13:32:38;;;;;;;;;;;;;;;;;;5074608;28;19950;-73
2021/12/07 13:35:04;;;;;;;;;;;;;;;;;;5075099;28;20264;-73
2021/12/07 13:37:30;;;;;;;;;;;;;;;;;;5074314;28;19912;-73
2021/12/07 13:39:56;;;;;;;;;;;;;;;;;;5075033;28;19912;-73
2021/12/07 13:42:22;;;;;;;;;;;;;;;;;;5074856;28;20425;-73
2021/12/07 13:44:48;;;;;;;;;;;;;;;;;;5074565;28;19912;-73
2021/12/07 13:47:14;;;;;;;;;;;;;;;;;;5074806;28;20003;-73
2021/12/07 13:49:40;;;;;;;;;;;;;;;;;;5074565;28;20367;-73
2021/12/07 13:52:06;;;;;;;;;;;;;;;;;;5074658;28;19920;-73
2021/12/07 13:54:32;;;;;;;;;;;;;;;;;;5074487;28;20422;-73
2021/12/07 13:56:58;;;;;;;;;;;;;;;;;;5074622;28;19931;-73
2021/12/07 13:59:23;;;;;;;;;;;;;;;;;;5074477;28;19915;-73
2021/12/07 14:01:49;;;;;;;;;;;;;;;;;;5073883;28;19966;-73
2021/12/07 14:04:15;;;;;;;;;;;;;;;;;;5072656;28;20317;-74
2021/12/07 14:06:41;;;;;;;;;;;;;;;;;;5073938;28;19908;-76
2021/12/07 14:09:07;;;;;;;;;;;;;;;;;;5073559;28;19963;-72
2021/12/07 14:11:33;;;;;;;;;;;;;;;;;;5056018;28;20003;-74
2021/12/07 14:13:59;;;;;;;;;;;;;;;;;;5073440;28;19978;-72
2021/12/07 14:16:25;;;;;;;;;;;;;;;;;;5073573;28;19909;-73
2021/12/07 14:18:50;;;;;;;;;;;;;;;;;;5073563;28;19908;-72
2021/12/07 14:21:16;;;;;;;;;;;;;;;;;;5073566;28;19916;-73
2021/12/07 14:23:42;;;;;;;;;;;;;;;;;;5073466;28;19976;-72
2021/12/07 14:26:08;;;;;;;;;;;;;;;;;;5055588;28;19913;-72
2021/12/07 14:28:34;;;;;;;;;;;;;;;;;;5073083;28;19966;-72
2021/12/07 14:31:00;;;;;;;;;;;;;;;;;;5073255;28;19916;-72
2021/12/07 14:33:26;;;;;;;;;;;;;;;;;;5073087;28;20395;-74
2021/12/07 14:35:51;;;;;;;;;;;;;;;;;;5073447;28;19908;-72
2021/12/07 14:38:17;;;;;;;;;;;;;;;;;;5073333;28;20395;-74
2021/12/07 14:40:44;;;;;;;;;;;;;;;;;;5073180;28;19930;-73
2021/12/07 14:43:09;;;;;;;;;;;;;;;;;;5073069;28;19908;-74
2021/12/07 14:45:35;;;;;;;;;;;;;;;;;;5072843;28;20331;-74
2021/12/07 14:48:01;;;;;;;;;;;;;;;;;;5073106;28;19995;-73
2021/12/07 14:50:27;;;;;;;;;;;;;;;;;;5055006;28;19908;-74
2021/12/07 14:52:53;;;;;;;;;;;;;;;;;;5054864;28;19916;-73
2021/12/07 14:55:19;;;;;;;;;;;;;;;;;;5073028;28;19935;-74
2021/12/07 14:57:45;;;;;;;;;;;;;;;;;;5072422;28;19915;-72
2021/12/07 15:00:10;;;;;;;;;;;;;;;;;;5072833;28;19915;-72
2021/12/07 15:02:36;;;;;;;;;;;;;;;;;;5055025;28;19908;-72
2021/12/07 15:05:03;;;;;;;;;;;;;;;;;;5072988;28;19912;-72
2021/12/07 15:07:32;;;;;;;;;;;;;;;;;;5072653;28;20014;-73
2021/12/07 15:09:58;;;;;;;;;;;;;;;;;;5072864;28;19919;-70
2021/12/07 15:12:24;;;;;;;;;;;;;;;;;;5069663;28;19921;-72
2021/12/07 15:14:50;;;;;;;;;;;;;;;;;;5073256;28;19909;-73
2021/12/07 15:17:16;;;;;;;;;;;;;;;;;;5073247;28;20257;-71
2021/12/07 15:19:42;;;;;;;;;;;;;;;;;;5073215;28;19908;-70
2021/12/07 15:22:07;;;;;;;;;;;;;;;;;;5072809;28;19908;-69
2021/12/07 15:24:33;;;;;;;;;;;;;;;;;;5072961;28;19952;-69
2021/12/07 15:26:59;;;;;;;;;;;;;;;;;;5072650;28;19909;-70
2021/12/07 15:29:25;;;;;;;;;;;;;;;;;;5072932;28;19999;-69
2021/12/07 15:31:51;;;;;;;;;;;;;;;;;;5072898;28;19916;-69
2021/12/07 15:34:18;;;;;;;;;;;;;;;;;;5072954;28;19908;-69
2021/12/07 15:36:44;;;;;;;;;;;;;;;;;;5072921;28;19909;-69
2021/12/07 15:39:10;;;;;;;;;;;;;;;;;;5072869;28;20264;-69
2021/12/07 15:41:36;;;;;;;;;;;;;;;;;;5072510;28;19909;-70
2021/12/07 15:44:02;;;;;;;;;;;;;;;;;;5072671;28;19915;-70
2021/12/07 15:46:28;;;;;;;;;;;;;;;;;;5072541;28;19930;-69
2021/12/07 15:48:53;;;;;;;;;;;;;;;;;;5072921;28;19912;-69
2021/12/07 15:51:19;;;;;;;;;;;;;;;;;;5072619;28;19962;-69
2021/12/07 15:53:45;;;;;;;;;;;;;;;;;;5072105;28;19916;-69
2021/12/07 15:56:11;;;;;;;;;;;;;;;;;;5073189;28;20436;-69
2021/12/07 15:58:37;;;;;;;;;;;;;;;;;;5071773;28;19909;-69
2021/12/07 16:01:03;;;;;;;;;;;;;;;;;;5073317;28;19909;-72
2021/12/07 16:03:29;;;;;;;;;;;;;;;;;;5075184;28;19912;-71
2021/12/07 16:05:54;;;;;;;;;;;;;;;;;;5076456;28;19908;-71
2021/12/07 16:08:20;;;;;;;;;;;;;;;;;;5058509;28;20267;-71
2021/12/07 16:10:46;;;;;;;;;;;;;;;;;;5074743;28;19909;-71
2021/12/07 16:13:12;;;;;;;;;;;;;;;;;;5076081;28;19921;-71
2021/12/07 16:15:38;;;;;;;;;;;;;;;;;;5076224;28;20448;-71
2021/12/07 16:18:04;;;;;;;;;;;;;;;;;;5076506;28;19909;-71
2021/12/07 16:20:30;;;;;;;;;;;;;;;;;;5058422;28;20014;-72
2021/12/07 16:22:56;;;;;;;;;;;;;;;;;;5076286;28;19912;-71
2021/12/07 16:25:22;;;;;;;;;;;;;;;;;;5076175;28;19983;-71
2021/12/07 16:27:47;;;;;;;;;;;;;;;;;;5058288;28;19909;-71
2021/12/07 16:30:13;;;;;;;;;;;;;;;;;;5075982;28;20365;-71
2021/12/07 16:32:39;;;;;;;;;;;;;;;;;;5076000;28;19916;-71
2021/12/07 16:35:05;;;;;;;;;;;;;;;;;;5076167;28;19908;-71
2021/12/07 16:37:31;;;;;;;;;;;;;;;;;;5076018;28;20441;-70
2021/12/07 16:39:57;;;;;;;;;;;;;;;;;;5075858;28;19912;-70
2021/12/07 16:42:23;;;;;;;;;;;;;;;;;;5075934;28;20388;-70
2021/12/07 16:44:48;;;;;;;;;;;;;;;;;;5074826;28;20025;-70
2021/12/07 16:47:14;;;;;;;;;;;;;;;;;;5057460;28;19908;-69
2021/12/07 16:49:40;;;;;;;;;;;;;;;;;;5057660;28;19908;-70
2021/12/07 16:52:06;;;;;;;;;;;;;;;;;;5075484;28;19912;-70
2021/12/07 16:54:32;;;;;;;;;;;;;;;;;;5057771;28;19991;-70
2021/12/07 16:56:58;;;;;;;;;;;;;;;;;;5075297;28;19964;-70
2021/12/07 16:59:23;;;;;;;;;;;;;;;;;;5075712;28;19916;-70
2021/12/07 17:01:49;;;;;;;;;;;;;;;;;;5075626;28;19915;-70
2021/12/07 17:04:15;;;;;;;;;;;;;;;;;;5075533;28;19916;-70
2021/12/07 17:06:41;;;;;;;;;;;;;;;;;;5075511;28;19909;-70
2021/12/07 17:09:07;;;;;;;;;;;;;;;;;;5075159;28;19920;-70
2021/12/07 17:11:33;;;;;;;;;;;;;;;;;;5074765;28;20003;-70
2021/12/07 17:13:59;;;;;;;;;;;;;;;;;;5074100;28;19916;-71
2021/12/07 17:16:26;;;;;;;;;;;;;;;;;;5075272;28;19951;-70
2021/12/07 17:18:52;;;;;;;;;;;;;;;;;;5075248;28;20011;-70
2021/12/07 17:21:18;;;;;;;;;;;;;;;;;;5074979;28;20043;-71
2021/12/07 17:23:44;;;;;;;;;;;;;;;;;;5075051;28;19915;-71
2021/12/07 17:26:10;;;;;;;;;;;;;;;;;;5074643;28;20322;-71
2021/12/07 17:28:36;;;;;;;;;;;;;;;;;;5074970;28;19909;-71
2021/12/07 17:31:02;;;;;;;;;;;;;;;;;;5074765;28;19915;-71
2021/12/07 17:33:27;;;;;;;;;;;;;;;;;;5074968;28;19917;-71
2021/12/07 17:35:53;;;;;;;;;;;;;;;;;;5075020;28;19912;-71
2021/12/07 17:38:19;;;;;;;;;;;;;;;;;;5057170;28;19912;-71
2021/12/07 17:40:45;;;;;;;;;;;;;;;;;;5073866;28;19912;-71
2021/12/07 17:43:11;;;;;;;;;;;;;;;;;;5056355;28;19909;-71
2021/12/07 17:45:37;;;;;;;;;;;;;;;;;;5074857;28;19909;-71
2021/12/07 17:48:03;;;;;;;;;;;;;;;;;;5074868;28;19954;-71
2021/12/07 17:50:28;;;;;;;;;;;;;;;;;;5074718;28;19979;-71
2021/12/07 17:52:54;;;;;;;;;;;;;;;;;;5074471;28;19961;-71
2021/12/07 17:55:20;;;;;;;;;;;;;;;;;;5074519;28;20272;-71
2021/12/07 17:57:46;;;;;;;;;;;;;;;;;;5074707;28;19916;-71
2021/12/07 18:00:15;;;;;;;;;;;;;;;;;;5074190;28;20365;-71
2021/12/07 18:02:41;;;;;;;;;;;;;;;;;;5080477;28;19935;-71
2021/12/07 18:05:06;;;;;;;;;;;;;;;;;;5067183;28;20436;-71
2021/12/07 18:07:34;;;;;;;;;;;;;;;;;;5063714;28;19916;-71
2021/12/07 18:10:00;;;;;;;;;;;;;;;;;;5084830;28;19916;-71
2021/12/07 18:12:26;;;;;;;;;;;;;;;;;;5082343;28;19927;-71
2021/12/07 18:14:52;;;;;;;;;;;;;;;;;;5083396;28;19912;-71
2021/12/07 18:17:18;;;;;;;;;;;;;;;;;;5065773;28;19934;-71
2021/12/07 18:19:44;;;;;;;;;;;;;;;;;;5082101;28;19919;-71
2021/12/07 18:22:10;;;;;;;;;;;;;;;;;;5084014;28;19937;-71
2021/12/07 18:24:36;;;;;;;;;;;;;;;;;;5062851;28;19920;-71
2021/12/07 18:27:03;;;;;;;;;;;;;;;;;;5066787;28;20010;-71
2021/12/07 18:29:29;;;;;;;;;;;;;;;;;;5081803;28;19916;-71